McWilliams, Alabama
Current Conditions -  °F | °C
As of 2:56 PM on Saturday 25 Oct 2014 (Local Time) from KPRN Reporting Station
Clear Clear  
Wind Chill: 79°   Ceiling: Unl
Heat Index: 79°   Visibility: 10mi
Dew Point: 44°   Wind: 8mph
Humidity: 29%   Direction: 360°N
Pressure: 30.03"   Gusts: NA
Location:  31.83°N, 87.09°W
Report Text: KPRN 251956Z AUTO 36007KT 10SM CLR 26/07 A3003 RMK AO2 SLP167 T02610067
Loading
Personal Weather Stations






























Interactive Weather Map
Tropical Storm Tracking
New forecast layout! Learn more

10-Day Weather Forecast

Advertisements
Track Severe Weather on mobile